createdAt,value
2017-05-07T00:00:49.642Z,44.64
2017-05-07T00:03:18.806Z,51.48
2017-05-07T00:05:48.012Z,43.86
2017-05-07T00:08:17.181Z,47.54
2017-05-07T00:10:46.373Z,38.86
2017-05-07T00:13:15.573Z,45.38
2017-05-07T00:15:44.754Z,40.36
2017-05-07T00:18:13.940Z,43.84
2017-05-07T00:20:43.142Z,42.60
2017-05-07T00:23:12.333Z,55.88
2017-05-07T00:25:41.521Z,43.28
2017-05-07T00:28:10.744Z,43.64
2017-05-07T00:30:39.922Z,45.00
2017-05-07T00:33:09.089Z,48.00
2017-05-07T00:35:38.283Z,48.28
2017-05-07T00:38:07.462Z,46.66
2017-05-07T00:40:36.792Z,48.46
2017-05-07T00:43:06.006Z,45.86
2017-05-07T00:45:35.178Z,56.24
2017-05-07T00:48:04.370Z,49.62
2017-05-07T00:50:33.562Z,54.42
2017-05-07T00:53:02.733Z,47.70
2017-05-07T00:55:31.908Z,44.20
2017-05-07T00:58:01.105Z,46.08
2017-05-07T01:00:30.279Z,55.98
2017-05-07T01:02:59.461Z,46.12
2017-05-07T01:05:28.653Z,46.28
2017-05-07T01:07:57.831Z,47.84
2017-05-07T01:10:27.018Z,46.32
2017-05-07T01:12:55.462Z,50.82
2017-05-07T01:15:24.638Z,53.42
2017-05-07T01:17:53.818Z,50.14
2017-05-07T01:20:23.009Z,49.26
2017-05-07T01:22:52.184Z,48.94
2017-05-07T01:25:21.359Z,51.62
2017-05-07T01:27:50.565Z,59.86
2017-05-07T01:30:19.572Z,50.54
2017-05-07T01:32:48.752Z,56.72
2017-05-07T01:35:17.966Z,43.30
2017-05-07T01:37:47.147Z,52.86
2017-05-07T01:40:16.322Z,54.44
2017-05-07T01:42:45.520Z,50.06
2017-05-07T01:45:14.693Z,45.32
2017-05-07T01:47:43.864Z,47.22
2017-05-07T01:50:12.720Z,54.54
2017-05-07T01:52:41.895Z,54.90
2017-05-07T01:55:11.057Z,48.70
2017-05-07T01:57:40.249Z,54.26
2017-05-07T02:00:09.423Z,54.00
2017-05-07T02:02:38.593Z,50.12
2017-05-07T02:05:07.447Z,56.34
2017-05-07T02:07:36.618Z,52.52
2017-05-07T02:10:05.780Z,56.98
2017-05-07T02:12:34.975Z,53.18
2017-05-07T02:15:04.162Z,57.48
2017-05-07T02:17:33.338Z,57.36
2017-05-07T02:20:02.522Z,51.58
2017-05-07T02:22:31.686Z,49.48
2017-05-07T02:25:00.856Z,45.68
2017-05-07T02:27:30.057Z,43.84
2017-05-07T02:29:58.482Z,51.00
2017-05-07T02:32:27.658Z,37.96
2017-05-07T02:34:56.105Z,40.18
2017-05-07T02:37:25.293Z,46.64
2017-05-07T02:39:54.466Z,36.10
2017-05-07T02:42:23.677Z,40.38
2017-05-07T02:44:52.944Z,45.90
2017-05-07T02:47:22.123Z,44.52
2017-05-07T02:49:50.565Z,42.20
2017-05-07T02:52:19.746Z,41.40
2017-05-07T02:54:48.924Z,49.68
2017-05-07T02:57:18.131Z,44.34
2017-05-07T02:59:47.320Z,35.80
2017-05-07T03:02:16.497Z,47.54
2017-05-07T03:04:45.693Z,37.20
2017-05-07T03:07:14.865Z,47.44
2017-05-07T03:09:44.034Z,43.94
2017-05-07T03:12:13.243Z,49.04
2017-05-07T03:14:42.417Z,48.46
2017-05-07T03:17:11.595Z,56.72
2017-05-07T03:19:40.798Z,48.22
2017-05-07T03:22:09.974Z,49.22
2017-05-07T03:24:39.147Z,52.30
2017-05-07T03:27:08.365Z,43.92
2017-05-07T03:29:36.772Z,58.50
2017-05-07T03:32:05.946Z,56.88
2017-05-07T03:34:35.150Z,61.32
2017-05-07T03:37:03.562Z,59.50
2017-05-07T03:39:32.730Z,47.78
2017-05-07T03:42:01.165Z,43.26
2017-05-07T03:44:30.342Z,42.64
2017-05-07T03:46:59.514Z,41.32
2017-05-07T03:49:28.707Z,43.34
2017-05-07T03:51:57.874Z,36.36
2017-05-07T03:54:27.052Z,35.50
2017-05-07T03:56:56.241Z,47.52
2017-05-07T03:59:24.650Z,45.42
2017-05-07T04:01:53.821Z,43.70
2017-05-07T04:04:23.034Z,34.58
2017-05-07T04:06:52.201Z,46.48
2017-05-07T04:09:21.371Z,47.78
2017-05-07T04:11:50.574Z,41.10
2017-05-07T04:14:19.737Z,38.32
2017-05-07T04:16:48.916Z,43.62
2017-05-07T04:19:18.113Z,37.00
2017-05-07T04:21:47.287Z,32.98
2017-05-07T04:24:16.462Z,36.02
2017-05-07T04:26:45.671Z,35.60
2017-05-07T04:29:14.846Z,33.74
2017-05-07T04:31:44.030Z,31.92
2017-05-07T04:34:13.243Z,34.68
2017-05-07T04:36:42.417Z,42.20
2017-05-07T04:39:11.594Z,33.90
2017-05-07T04:41:40.802Z,36.70
2017-05-07T04:44:09.986Z,33.24
2017-05-07T04:46:38.403Z,34.08
2017-05-07T04:49:07.602Z,31.18
2017-05-07T04:51:36.781Z,30.42
2017-05-07T04:54:05.972Z,32.02
2017-05-07T04:56:35.166Z,34.14
2017-05-07T04:59:04.352Z,35.80
2017-05-07T05:01:33.529Z,33.66
2017-05-07T05:04:02.750Z,31.56
2017-05-07T05:06:31.926Z,28.76
2017-05-07T05:09:01.102Z,29.20
2017-05-07T05:11:30.323Z,25.82
2017-05-07T05:13:59.494Z,29.32
2017-05-07T05:16:27.907Z,23.68
2017-05-07T05:18:59.814Z,28.20
2017-05-07T05:21:43.521Z,28.62
2017-05-07T05:24:29.813Z,26.12
2017-05-07T05:27:06.324Z,28.18
2017-05-07T05:30:04.734Z,25.98
2017-05-07T05:32:33.905Z,23.38
2017-05-07T05:35:03.109Z,25.20
2017-05-07T05:37:32.314Z,26.80
2017-05-07T05:40:01.489Z,26.74
2017-05-07T05:42:29.201Z,28.18
2017-05-07T05:44:58.410Z,24.24
2017-05-07T05:47:27.589Z,25.18
2017-05-07T05:49:56.766Z,24.62
2017-05-07T05:52:25.956Z,21.98
2017-05-07T05:54:55.122Z,24.44
2017-05-07T05:57:23.530Z,22.50
2017-05-07T05:59:52.733Z,24.06
2017-05-07T06:02:21.138Z,21.24
2017-05-07T06:04:50.312Z,21.38
2017-05-07T06:07:19.508Z,19.58
2017-05-07T06:09:48.689Z,22.46
2017-05-07T06:12:17.103Z,23.12
2017-05-07T06:14:46.297Z,24.08
2017-05-07T06:17:15.480Z,23.86
2017-05-07T06:19:44.662Z,32.98
2017-05-07T06:22:13.878Z,22.24
2017-05-07T06:24:43.055Z,23.06
2017-05-07T06:27:12.240Z,22.18
2017-05-07T06:29:41.449Z,22.82
2017-05-07T06:32:13.506Z,20.26
2017-05-07T06:34:42.718Z,20.56
2017-05-07T06:37:11.897Z,19.72
2017-05-07T06:39:41.070Z,22.20
2017-05-07T06:42:09.189Z,20.74
2017-05-07T06:44:38.374Z,19.54
2017-05-07T06:47:06.791Z,20.06
2017-05-07T06:49:35.268Z,19.64
2017-05-07T06:52:04.437Z,17.90
2017-05-07T06:54:33.622Z,21.06
2017-05-07T06:57:02.833Z,22.70
2017-05-07T06:59:32.010Z,23.18
2017-05-07T07:02:01.189Z,17.02
2017-05-07T07:04:30.398Z,17.12
2017-05-07T07:06:59.573Z,18.70
2017-05-07T07:09:28.054Z,18.88
2017-05-07T07:11:57.290Z,15.82
2017-05-07T07:14:26.465Z,18.56
2017-05-07T07:16:55.654Z,19.14
2017-05-07T07:19:24.862Z,17.38
2017-05-07T07:21:54.042Z,14.82
2017-05-07T07:24:22.446Z,18.76
2017-05-07T07:26:51.657Z,17.66
2017-05-07T07:29:20.841Z,15.06
2017-05-07T07:31:50.018Z,17.32
2017-05-07T07:34:18.467Z,18.70
2017-05-07T07:36:47.634Z,20.26
2017-05-07T07:39:16.822Z,14.84
2017-05-07T07:41:46.041Z,17.60
2017-05-07T07:44:15.293Z,21.20
2017-05-07T07:46:44.468Z,20.96
2017-05-07T07:49:12.897Z,19.92
2017-05-07T07:51:42.086Z,18.34
2017-05-07T07:54:10.494Z,17.62
2017-05-07T07:56:39.697Z,17.40
2017-05-07T07:59:08.118Z,17.30
2017-05-07T08:01:37.302Z,15.90
2017-05-07T08:04:05.730Z,17.34
2017-05-07T08:06:34.897Z,17.38
2017-05-07T08:09:03.221Z,18.18
2017-05-07T08:11:32.442Z,17.00
2017-05-07T08:14:00.848Z,15.72
2017-05-07T08:16:30.027Z,15.90
2017-05-07T08:18:59.244Z,17.90
2017-05-07T08:21:28.426Z,17.32
2017-05-07T08:23:57.596Z,18.08
2017-05-07T08:26:26.832Z,15.96
2017-05-07T08:28:55.254Z,14.84
2017-05-07T08:31:24.438Z,14.38
2017-05-07T08:33:53.650Z,14.86
2017-05-07T08:36:22.826Z,16.44
2017-05-07T08:38:51.230Z,17.44
2017-05-07T08:41:20.426Z,15.10
2017-05-07T08:43:49.663Z,16.90
2017-05-07T08:46:18.834Z,17.34
2017-05-07T08:48:48.046Z,15.64
2017-05-07T08:51:17.218Z,14.54
2017-05-07T08:53:46.397Z,14.76
2017-05-07T08:56:15.606Z,15.58
2017-05-07T08:58:44.774Z,14.28
2017-05-07T09:01:13.953Z,13.48
2017-05-07T09:03:43.147Z,14.36
2017-05-07T09:06:11.587Z,13.82
2017-05-07T09:08:40.774Z,14.56
2017-05-07T09:11:08.334Z,14.68
2017-05-07T09:14:06.568Z,15.04
2017-05-07T09:16:35.615Z,12.96
2017-05-07T09:19:04.828Z,11.68
2017-05-07T09:21:34.003Z,10.64
2017-05-07T09:24:03.214Z,10.98
2017-05-07T09:26:32.394Z,12.20
2017-05-07T09:29:01.012Z,11.44
2017-05-07T09:31:30.443Z,11.66
2017-05-07T09:33:59.614Z,11.56
2017-05-07T09:36:28.026Z,12.68
2017-05-07T09:38:57.242Z,10.62
2017-05-07T09:41:26.414Z,14.26
2017-05-07T09:43:55.586Z,13.40
2017-05-07T09:46:24.793Z,13.56
2017-05-07T09:48:53.209Z,13.78
2017-05-07T09:51:21.628Z,14.06
2017-05-07T09:53:50.839Z,12.16
2017-05-07T09:56:20.018Z,16.58
2017-05-07T09:58:48.845Z,13.80
2017-05-07T10:01:18.045Z,16.64
2017-05-07T10:03:47.253Z,13.10
2017-05-07T10:06:16.434Z,12.24
2017-05-07T10:08:44.865Z,13.98
2017-05-07T10:11:14.046Z,14.26
2017-05-07T10:13:42.459Z,13.24
2017-05-07T10:16:11.649Z,13.12
2017-05-07T10:18:40.153Z,13.44
2017-05-07T10:21:09.334Z,16.94
2017-05-07T10:23:38.619Z,14.20
2017-05-07T10:26:07.797Z,15.34
2017-05-07T10:28:36.973Z,14.66
2017-05-07T10:31:06.181Z,15.40
2017-05-07T10:33:35.361Z,12.68
2017-05-07T10:36:04.541Z,12.44
2017-05-07T10:38:32.993Z,12.86
2017-05-07T10:41:02.170Z,12.10
2017-05-07T10:43:30.577Z,14.22
2017-05-07T10:45:59.802Z,15.52
2017-05-07T10:48:29.029Z,16.00
2017-05-07T10:50:58.302Z,12.88
2017-05-07T10:53:26.756Z,11.84
2017-05-07T10:55:55.941Z,12.78
2017-05-07T10:58:24.357Z,11.68
2017-05-07T11:00:53.564Z,11.70
2017-05-07T11:03:21.970Z,12.16
2017-05-07T11:05:51.134Z,13.42
2017-05-07T11:08:20.353Z,13.20
2017-05-07T11:10:49.524Z,12.86
2017-05-07T11:13:18.697Z,13.64
2017-05-07T11:15:47.905Z,13.20
2017-05-07T11:18:17.081Z,11.82
2017-05-07T11:20:46.254Z,12.40
2017-05-07T11:23:15.453Z,11.20
2017-05-07T11:25:44.625Z,10.60
2017-05-07T11:28:16.673Z,9.12
2017-05-07T11:30:46.029Z,10.76
2017-05-07T11:33:15.210Z,10.22
2017-05-07T11:35:44.405Z,10.30
2017-05-07T11:38:13.601Z,10.76
2017-05-07T11:40:42.786Z,8.72
2017-05-07T11:43:11.961Z,9.18
2017-05-07T11:45:41.149Z,9.52
2017-05-07T11:48:10.329Z,10.00
2017-05-07T11:50:39.319Z,10.54
2017-05-07T11:53:08.525Z,10.98
2017-05-07T11:55:37.702Z,11.54
2017-05-07T11:58:06.898Z,12.52
2017-05-07T12:00:36.778Z,11.34
2017-05-07T12:03:05.954Z,12.18
2017-05-07T12:05:35.138Z,12.74
2017-05-07T12:08:04.357Z,13.46
2017-05-07T12:10:32.762Z,13.58
2017-05-07T12:13:01.951Z,13.54
2017-05-07T12:15:31.163Z,10.80
2017-05-07T12:18:00.341Z,11.68
2017-05-07T12:20:29.509Z,12.56
2017-05-07T12:22:58.709Z,12.34
2017-05-07T12:25:27.887Z,11.64
2017-05-07T12:27:57.074Z,13.12
2017-05-07T12:30:26.294Z,11.80
2017-05-07T12:32:55.472Z,13.64
2017-05-07T12:35:24.657Z,12.42
2017-05-07T12:37:53.862Z,12.68
2017-05-07T12:40:23.049Z,14.92
2017-05-07T12:42:51.453Z,18.04
2017-05-07T12:45:20.649Z,12.58
2017-05-07T12:47:49.071Z,13.62
2017-05-07T12:50:17.485Z,11.86
2017-05-07T12:52:46.685Z,13.10
2017-05-07T12:55:15.868Z,12.00
2017-05-07T12:57:45.045Z,15.20
2017-05-07T13:00:14.246Z,12.02
2017-05-07T13:02:43.442Z,17.10
2017-05-07T13:05:12.622Z,12.78
2017-05-07T13:07:41.828Z,13.14
2017-05-07T13:10:10.997Z,12.62
2017-05-07T13:12:40.170Z,11.60
2017-05-07T13:15:09.387Z,13.48
2017-05-07T13:17:38.570Z,14.56
2017-05-07T13:20:07.743Z,12.32
2017-05-07T13:22:36.942Z,14.02
2017-05-07T13:25:06.115Z,12.66
2017-05-07T13:27:35.292Z,12.22
2017-05-07T13:30:04.500Z,11.86
2017-05-07T13:32:33.678Z,11.16
2017-05-07T13:35:02.875Z,12.84
2017-05-07T13:37:32.078Z,12.34
2017-05-07T13:40:01.454Z,11.56
2017-05-07T13:42:30.619Z,10.04
2017-05-07T13:44:59.817Z,12.94
2017-05-07T13:47:28.991Z,11.42
2017-05-07T13:49:57.408Z,11.54
2017-05-07T13:52:25.845Z,10.36
2017-05-07T13:54:55.022Z,10.80
2017-05-07T13:57:24.191Z,9.38
2017-05-07T13:59:53.397Z,10.58
2017-05-07T14:02:22.570Z,10.48
2017-05-07T14:04:51.737Z,12.50
2017-05-07T14:07:20.947Z,12.70
2017-05-07T14:09:50.133Z,11.26
2017-05-07T14:12:19.306Z,11.40
2017-05-07T14:14:48.502Z,10.24
2017-05-07T14:17:17.678Z,10.98
2017-05-07T14:19:46.851Z,10.96
2017-05-07T14:22:16.046Z,14.56
2017-05-07T14:24:45.217Z,12.38
2017-05-07T14:27:14.394Z,11.40
2017-05-07T14:29:42.843Z,15.28
2017-05-07T14:32:12.030Z,11.64
2017-05-07T14:34:41.205Z,12.10
2017-05-07T14:37:09.650Z,13.58
2017-05-07T14:39:38.829Z,13.28
2017-05-07T14:42:07.238Z,11.32
2017-05-07T14:44:36.441Z,12.90
2017-05-07T14:47:05.614Z,11.68
2017-05-07T14:49:34.794Z,15.96
2017-05-07T14:52:04.014Z,13.84
2017-05-07T14:54:33.199Z,15.58
2017-05-07T14:57:01.610Z,14.50
2017-05-07T14:59:30.823Z,15.66
2017-05-07T15:02:00.001Z,12.68
2017-05-07T15:04:29.175Z,13.42
2017-05-07T15:06:58.370Z,15.88
2017-05-07T15:09:27.533Z,13.38
2017-05-07T15:11:56.704Z,14.50
2017-05-07T15:14:25.905Z,12.18
2017-05-07T15:16:55.087Z,13.12
2017-05-07T15:19:23.494Z,13.24
2017-05-07T15:21:51.944Z,13.58
2017-05-07T15:24:20.352Z,14.70
2017-05-07T15:26:49.557Z,13.66
2017-05-07T15:29:18.765Z,13.90
2017-05-07T15:31:47.961Z,15.28
2017-05-07T15:34:16.370Z,14.80
2017-05-07T15:36:45.582Z,14.26
2017-05-07T15:39:14.759Z,13.18
2017-05-07T15:41:43.946Z,13.28
2017-05-07T15:44:12.817Z,14.54
2017-05-07T15:46:41.997Z,13.92
2017-05-07T15:49:11.183Z,15.08
2017-05-07T15:51:40.393Z,13.98
2017-05-07T15:54:08.808Z,11.84
2017-05-07T15:56:37.981Z,13.70
2017-05-07T15:59:07.164Z,11.92
2017-05-07T16:01:36.336Z,13.68
2017-05-07T16:04:05.637Z,11.62
2017-05-07T16:06:34.742Z,13.58
2017-05-07T16:09:03.382Z,10.46
2017-05-07T16:11:32.577Z,10.92
2017-05-07T16:14:00.986Z,11.44
2017-05-07T16:17:01.029Z,12.90
2017-05-07T16:19:44.738Z,11.50
2017-05-07T16:25:35.780Z,9.64
2017-05-07T16:28:05.022Z,9.16
2017-05-07T16:30:34.909Z,11.36
2017-05-07T16:33:04.741Z,11.42
2017-05-07T16:35:33.913Z,10.54
2017-05-07T16:38:03.106Z,9.42
2017-05-07T16:40:33.037Z,9.80
2017-05-07T16:43:02.213Z,10.80
2017-05-07T16:45:31.410Z,9.26
2017-05-07T16:48:01.326Z,12.20
2017-05-07T16:50:31.274Z,8.62
2017-05-07T16:53:00.463Z,9.50
2017-05-07T16:55:29.641Z,10.20
2017-05-07T16:57:59.569Z,10.18
2017-05-07T17:00:28.774Z,10.66
2017-05-07T17:03:03.292Z,11.06
2017-05-07T17:05:32.277Z,10.82
2017-05-07T17:08:02.194Z,9.50
2017-05-07T17:10:32.137Z,8.72
2017-05-07T17:13:01.116Z,9.32
2017-05-07T17:15:30.317Z,10.38
2017-05-07T17:17:59.493Z,10.06
2017-05-07T17:20:29.431Z,10.20
2017-05-07T17:22:58.614Z,9.00
2017-05-07T17:25:28.526Z,8.96
2017-05-07T17:27:57.719Z,11.38
2017-05-07T17:30:27.691Z,11.48
2017-05-07T17:32:56.860Z,11.66
2017-05-07T17:35:26.042Z,15.00
2017-05-07T17:37:55.961Z,10.12
2017-05-07T17:40:25.895Z,7.60
2017-05-07T17:42:55.061Z,8.68
2017-05-07T17:45:23.891Z,9.00
2017-05-07T17:47:53.077Z,7.76
2017-05-07T17:50:22.270Z,8.98
2017-05-07T17:52:52.213Z,8.38
2017-05-07T17:55:22.297Z,8.24
2017-05-07T17:57:52.256Z,13.82
2017-05-07T18:00:21.989Z,7.78
2017-05-07T18:02:51.797Z,7.16
2017-05-07T18:05:21.541Z,6.84
2017-05-07T18:07:51.895Z,7.50
2017-05-07T18:10:21.109Z,11.34
2017-05-07T18:12:50.314Z,8.80
2017-05-07T18:15:19.662Z,9.38
2017-05-07T18:17:48.841Z,7.76
2017-05-07T18:20:18.290Z,7.18
2017-05-07T18:22:47.477Z,7.20
2017-05-07T18:25:17.386Z,9.38
2017-05-07T18:27:47.324Z,7.78
2017-05-07T18:30:16.502Z,6.82
2017-05-07T18:32:46.425Z,8.94
2017-05-07T18:35:16.366Z,9.12
2017-05-07T18:37:45.541Z,7.38
2017-05-07T18:40:15.462Z,8.94
2017-05-07T18:42:45.382Z,9.10
2017-05-07T18:45:14.565Z,12.96
2017-05-07T18:47:44.494Z,5.32
2017-05-07T18:50:14.404Z,5.92
2017-05-07T18:52:44.332Z,6.50
2017-05-07T18:55:13.501Z,6.50
2017-05-07T18:57:42.691Z,5.32
2017-05-07T19:00:11.874Z,5.96
2017-05-07T19:02:41.046Z,5.68
2017-05-07T19:05:10.241Z,6.58
2017-05-07T19:07:39.415Z,5.80
2017-05-07T19:10:09.341Z,6.70
2017-05-07T19:12:38.537Z,5.60
2017-05-07T19:15:07.714Z,7.22
2017-05-07T19:17:37.658Z,5.20
2017-05-07T19:20:06.884Z,6.22
2017-05-07T19:22:36.050Z,8.24
2017-05-07T19:25:05.228Z,4.98
2017-05-07T19:27:35.142Z,8.84
2017-05-07T19:30:04.329Z,5.56
2017-05-07T19:32:33.489Z,9.58
2017-05-07T19:35:02.674Z,5.54
2017-05-07T19:37:31.846Z,6.96
2017-05-07T19:40:01.149Z,7.10
2017-05-07T19:42:31.066Z,7.44
2017-05-07T19:45:01.005Z,8.48
2017-05-07T19:47:30.178Z,6.62
2017-05-07T19:50:00.170Z,6.58
2017-05-07T19:52:29.349Z,8.18
2017-05-07T19:54:58.519Z,10.44
2017-05-07T19:57:27.709Z,5.70
2017-05-07T19:59:56.900Z,8.70
2017-05-07T20:02:26.074Z,6.86
2017-05-07T20:04:55.330Z,8.40
2017-05-07T20:07:24.494Z,7.78
2017-05-07T20:09:53.666Z,7.52
2017-05-07T20:12:22.853Z,8.58
2017-05-07T20:14:52.038Z,13.26
2017-05-07T20:17:21.206Z,8.26
2017-05-07T20:19:50.389Z,9.26
2017-05-07T20:22:19.562Z,10.18
2017-05-07T20:24:48.786Z,12.52
2017-05-07T20:27:17.957Z,12.06
2017-05-07T20:29:47.142Z,9.82
2017-05-07T20:32:16.326Z,12.40
2017-05-07T20:34:45.516Z,10.86
2017-05-07T20:37:14.693Z,13.06
2017-05-07T20:39:43.882Z,10.50
2017-05-07T20:42:13.073Z,15.20
2017-05-07T20:44:42.278Z,13.88
2017-05-07T20:47:11.449Z,11.64
2017-05-07T20:49:40.625Z,15.96
2017-05-07T20:52:09.809Z,13.32
2017-05-07T20:54:38.985Z,13.30
2017-05-07T20:57:08.188Z,13.38
2017-05-07T20:59:38.081Z,12.50
2017-05-07T21:02:07.278Z,13.76
2017-05-07T21:04:37.205Z,16.00
2017-05-07T21:07:06.190Z,14.06
2017-05-07T21:09:35.374Z,11.28
2017-05-07T21:12:05.307Z,12.44
2017-05-07T21:14:34.494Z,13.34
2017-05-07T21:17:04.410Z,12.78
2017-05-07T21:19:34.358Z,14.20
2017-05-07T21:22:03.529Z,15.24
2017-05-07T21:24:33.457Z,16.20
2017-05-07T21:27:02.658Z,14.64
2017-05-07T21:29:31.829Z,15.38
2017-05-07T21:32:01.757Z,13.58
2017-05-07T21:34:31.670Z,17.66
2017-05-07T21:37:01.586Z,16.58
2017-05-07T21:39:31.507Z,17.74
2017-05-07T21:42:01.436Z,17.76
2017-05-07T21:44:30.610Z,19.08
2017-05-07T21:47:00.749Z,22.20
2017-05-07T21:49:29.938Z,17.00
2017-05-07T21:51:59.880Z,21.14
2017-05-07T21:54:29.050Z,17.66
2017-05-07T21:56:58.982Z,20.88
2017-05-07T21:59:28.171Z,21.08
2017-05-07T22:01:58.082Z,19.18
2017-05-07T22:04:28.007Z,22.02
2017-05-07T22:06:57.183Z,20.76
2017-05-07T22:09:26.361Z,21.34
2017-05-07T22:11:55.529Z,21.56
2017-05-07T22:14:24.717Z,18.80
2017-05-07T22:16:53.887Z,19.52
2017-05-07T22:19:23.810Z,20.66
2017-05-07T22:21:53.727Z,29.26
2017-05-07T22:24:23.649Z,23.44
2017-05-07T22:26:52.822Z,28.08
2017-05-07T22:29:21.998Z,24.08
2017-05-07T22:31:51.165Z,17.66
2017-05-07T22:34:20.378Z,24.30
2017-05-07T22:36:49.546Z,22.62
2017-05-07T22:39:18.718Z,24.82
2017-05-07T22:41:48.641Z,18.44
2017-05-07T22:44:18.550Z,26.36
2017-05-07T22:46:48.482Z,24.32
2017-05-07T22:49:18.387Z,26.14
2017-05-07T22:51:48.305Z,24.84
2017-05-07T22:54:18.218Z,25.40
2017-05-07T22:56:48.137Z,23.46
2017-05-07T22:59:18.049Z,21.16
2017-05-07T23:01:47.964Z,24.16
2017-05-07T23:04:17.882Z,22.06
2017-05-07T23:06:47.817Z,18.68
2017-05-07T23:09:17.011Z,20.42
2017-05-07T23:11:46.185Z,20.88
2017-05-07T23:14:15.370Z,24.00
2017-05-07T23:16:44.536Z,25.00
2017-05-07T23:19:13.718Z,26.58
2017-05-07T23:21:42.885Z,19.28
2017-05-07T23:24:12.810Z,21.22
2017-05-07T23:26:42.721Z,21.22
2017-05-07T23:29:12.657Z,22.68
2017-05-07T23:31:41.821Z,17.50
2017-05-07T23:34:10.997Z,16.72
2017-05-07T23:36:40.185Z,17.42
2017-05-07T23:39:09.357Z,19.92
2017-05-07T23:41:38.544Z,22.88
2017-05-07T23:44:07.716Z,15.84
2017-05-07T23:46:36.886Z,19.88
2017-05-07T23:49:06.070Z,19.16
2017-05-07T23:51:35.242Z,18.30
2017-05-07T23:54:04.425Z,22.60
2017-05-07T23:56:34.341Z,27.50
2017-05-07T23:59:04.266Z,21.18
